createdAt,value
2023-04-26T00:00:42.394Z,1.40
2023-04-26T00:03:10.112Z,1.40
2023-04-26T00:05:38.371Z,1.30
2023-04-26T00:08:05.901Z,1.20
2023-04-26T00:10:33.034Z,1.20
2023-04-26T00:13:00.139Z,1.10
2023-04-26T00:15:27.193Z,1.00
2023-04-26T00:17:54.263Z,1.00
2023-04-26T00:20:21.977Z,1.10
2023-04-26T00:22:48.931Z,1.10
2023-04-26T00:25:15.873Z,1.10
2023-04-26T00:27:43.041Z,1.10
2023-04-26T00:30:11.332Z,1.10
2023-04-26T00:32:38.336Z,1.00
2023-04-26T00:35:06.465Z,1.10
2023-04-26T00:37:33.528Z,1.10
2023-04-26T00:40:00.502Z,1.10
2023-04-26T00:42:27.835Z,1.20
2023-04-26T00:44:57.846Z,1.20
2023-04-26T00:47:29.986Z,1.30
2023-04-26T00:49:57.053Z,1.40
2023-04-26T00:52:25.287Z,1.40
2023-04-26T00:54:53.746Z,1.40
2023-04-26T00:57:22.392Z,1.40
2023-04-26T00:59:50.038Z,1.40
2023-04-26T01:02:17.787Z,1.50
2023-04-26T01:04:45.741Z,1.50
2023-04-26T01:07:12.925Z,1.50
2023-04-26T01:09:40.751Z,1.40
2023-04-26T01:12:09.087Z,1.40
2023-04-26T01:14:39.091Z,1.40
2023-04-26T01:17:06.342Z,1.40
2023-04-26T01:19:33.850Z,1.40
2023-04-26T01:22:00.965Z,1.30
2023-04-26T01:24:28.618Z,1.30
2023-04-26T01:26:55.750Z,1.30
2023-04-26T01:29:24.633Z,1.30
2023-04-26T01:31:51.630Z,1.30
2023-04-26T01:34:18.544Z,1.30
2023-04-26T01:36:45.478Z,1.30
2023-04-26T01:39:12.696Z,1.30
2023-04-26T01:41:39.641Z,1.30
2023-04-26T01:44:06.806Z,1.30
2023-04-26T01:46:33.834Z,1.30
2023-04-26T01:49:00.902Z,1.30
2023-04-26T01:51:27.886Z,1.20
2023-04-26T01:53:54.825Z,1.10
2023-04-26T01:56:23.914Z,1.10
2023-04-26T01:58:51.391Z,1.10
2023-04-26T02:01:18.765Z,1.00
2023-04-26T02:03:45.904Z,1.00
2023-04-26T02:06:13.042Z,1.00
2023-04-26T02:08:39.922Z,1.00
2023-04-26T02:11:07.478Z,1.00
2023-04-26T02:13:34.553Z,1.00
2023-04-26T02:16:01.995Z,1.00
2023-04-26T02:18:30.015Z,1.10
2023-04-26T02:20:57.441Z,1.10
2023-04-26T02:23:24.586Z,0.90
2023-04-26T02:25:51.853Z,0.90
2023-04-26T02:28:18.997Z,1.00
2023-04-26T02:30:45.902Z,1.00
2023-04-26T02:33:12.852Z,0.80
2023-04-26T02:35:40.078Z,0.80
2023-04-26T02:38:07.432Z,0.70
2023-04-26T02:40:34.681Z,0.70
2023-04-26T02:43:01.734Z,0.60
2023-04-26T02:45:28.882Z,0.60
2023-04-26T02:47:56.095Z,0.60
2023-04-26T02:50:23.821Z,0.60
2023-04-26T02:52:50.802Z,0.60
2023-04-26T02:55:17.720Z,0.50
2023-04-26T02:57:44.664Z,0.50
2023-04-26T03:00:14.366Z,0.50
2023-04-26T03:02:41.847Z,0.60
2023-04-26T03:05:09.828Z,0.60
2023-04-26T03:07:37.430Z,0.60
2023-04-26T03:10:05.518Z,0.70
2023-04-26T03:12:32.695Z,0.70
2023-04-26T03:14:59.599Z,0.70
2023-04-26T03:17:26.732Z,0.60
2023-04-26T03:19:53.761Z,0.50
2023-04-26T03:22:21.479Z,0.40
2023-04-26T03:24:49.224Z,0.30
2023-04-26T03:27:17.185Z,0.30
2023-04-26T03:29:44.379Z,0.30
2023-04-26T03:32:11.869Z,0.30
2023-04-26T03:34:38.943Z,0.20
2023-04-26T03:37:06.131Z,0.20
2023-04-26T03:39:33.039Z,0.20
2023-04-26T03:42:00.424Z,0.20
2023-04-26T03:44:29.193Z,0.20
2023-04-26T03:46:58.028Z,0.30
2023-04-26T03:49:24.965Z,0.30
2023-04-26T03:51:52.159Z,0.30
2023-04-26T03:54:19.335Z,0.40
2023-04-26T03:56:46.455Z,0.40
2023-04-26T03:59:13.413Z,0.30
2023-04-26T04:01:41.016Z,0.40
2023-04-26T04:04:08.729Z,0.30
2023-04-26T04:06:36.489Z,0.40
2023-04-26T04:09:05.684Z,0.30
2023-04-26T04:11:33.208Z,0.30
2023-04-26T04:14:00.526Z,0.30
2023-04-26T04:16:27.948Z,0.40
2023-04-26T04:18:55.198Z,0.40
2023-04-26T04:21:22.419Z,0.40
2023-04-26T04:23:50.334Z,0.30
2023-04-26T04:26:17.777Z,0.40
2023-04-26T04:28:45.876Z,0.40
2023-04-26T04:31:13.400Z,0.40
2023-04-26T04:33:40.560Z,0.40
2023-04-26T04:36:08.547Z,0.30
2023-04-26T04:38:36.365Z,0.30
2023-04-26T04:41:03.514Z,0.30
2023-04-26T04:43:30.443Z,0.40
2023-04-26T04:45:58.712Z,0.40
2023-04-26T04:48:26.112Z,0.40
2023-04-26T04:50:53.394Z,0.60
2023-04-26T04:53:20.612Z,0.60
2023-04-26T04:55:47.759Z,0.70
2023-04-26T04:58:15.006Z,0.70
2023-04-26T05:00:41.962Z,0.60
2023-04-26T05:03:10.154Z,0.60
2023-04-26T05:05:37.344Z,0.60
2023-04-26T05:08:04.487Z,0.60
2023-04-26T05:10:32.001Z,0.60
2023-04-26T05:12:59.450Z,0.70
2023-04-26T05:15:26.850Z,0.70
2023-04-26T05:17:56.136Z,0.80
2023-04-26T05:20:23.428Z,0.90
2023-04-26T05:22:50.520Z,1.00
2023-04-26T05:25:18.205Z,1.10
2023-04-26T05:27:45.916Z,1.20
2023-04-26T05:30:13.245Z,1.20
2023-04-26T05:32:40.588Z,1.20
2023-04-26T05:35:08.940Z,1.20
2023-04-26T05:37:36.511Z,1.30
2023-04-26T05:40:04.769Z,1.30
2023-04-26T05:42:31.811Z,1.30
2023-04-26T05:44:59.519Z,1.50
2023-04-26T05:47:26.547Z,1.50
2023-04-26T05:49:53.574Z,1.60
2023-04-26T05:52:20.540Z,1.70
2023-04-26T05:54:47.685Z,1.70
2023-04-26T05:57:14.933Z,1.80
2023-04-26T05:59:42.456Z,1.90
2023-04-26T06:02:09.641Z,2.00
2023-04-26T06:04:36.807Z,2.00
2023-04-26T06:07:03.953Z,2.10
2023-04-26T06:09:34.278Z,2.10
2023-04-26T06:12:02.358Z,2.10
2023-04-26T06:14:30.722Z,2.30
2023-04-26T06:16:58.344Z,2.30
2023-04-26T06:19:25.570Z,2.50
2023-04-26T06:21:55.020Z,2.60
2023-04-26T06:24:24.536Z,2.70
2023-04-26T06:26:51.949Z,2.80
2023-04-26T06:29:19.421Z,2.80
2023-04-26T06:31:46.389Z,3.00
2023-04-26T06:34:14.442Z,3.00
2023-04-26T06:36:41.687Z,3.20
2023-04-26T06:39:08.822Z,3.30
2023-04-26T06:41:35.970Z,3.50
2023-04-26T06:44:02.947Z,3.70
2023-04-26T06:46:30.591Z,4.00
2023-04-26T06:48:57.503Z,4.30
2023-04-26T06:51:24.438Z,4.50
2023-04-26T06:53:52.531Z,4.60
2023-04-26T06:56:19.976Z,4.60
2023-04-26T06:59:01.114Z,4.70
2023-04-26T07:02:45.410Z,4.90
2023-04-26T10:06:18.694Z,13.30
2023-04-26T10:08:45.758Z,12.80
2023-04-26T10:11:13.112Z,12.40
2023-04-26T10:13:41.919Z,13.10
2023-04-26T10:16:12.773Z,13.70
2023-04-26T10:18:39.733Z,13.90
2023-04-26T10:21:17.832Z,14.90
2023-04-26T10:23:45.636Z,14.40
2023-04-26T10:26:52.078Z,13.20
2023-04-26T10:29:23.566Z,11.60
2023-04-26T10:32:04.090Z,12.30
2023-04-26T10:34:33.410Z,13.20
2023-04-26T10:37:12.016Z,13.10
2023-04-26T10:39:43.112Z,14.20
2023-04-26T10:42:27.990Z,14.80
2023-04-26T10:44:58.973Z,14.60
2023-04-26T10:47:30.900Z,13.20
2023-04-26T10:50:06.610Z,12.60
2023-04-26T10:52:34.554Z,12.60
2023-04-26T10:55:02.762Z,13.00
2023-04-26T10:57:48.389Z,13.10
2023-04-26T11:00:31.409Z,12.40
2023-04-26T11:03:07.269Z,13.50
2023-04-26T11:05:54.235Z,13.40
2023-04-26T11:08:28.543Z,14.70
2023-04-26T11:11:02.786Z,15.00
2023-04-26T11:13:40.262Z,15.90
2023-04-26T11:16:15.264Z,16.40
2023-04-26T11:18:47.440Z,16.20
2023-04-26T11:21:18.099Z,15.80
2023-04-26T11:23:54.672Z,14.90
2023-04-26T11:26:22.150Z,14.70
2023-04-26T11:28:49.922Z,15.10
2023-04-26T11:31:19.530Z,14.70
2023-04-26T11:33:49.970Z,14.60
2023-04-26T11:36:19.727Z,14.30
2023-04-26T11:38:47.030Z,12.90
2023-04-26T11:41:14.047Z,13.10
2023-04-26T11:43:41.404Z,13.00
2023-04-26T11:46:10.382Z,12.90
2023-04-26T11:48:39.197Z,12.60
2023-04-26T11:51:08.605Z,12.30
2023-04-26T11:53:40.729Z,11.90
2023-04-26T11:56:17.864Z,11.70
2023-04-26T11:58:49.349Z,11.50
2023-04-26T12:01:27.734Z,11.50
2023-04-26T12:03:57.509Z,11.30
2023-04-26T12:06:44.643Z,11.30
2023-04-26T12:09:12.440Z,12.10
2023-04-26T12:11:40.471Z,13.20
2023-04-26T12:14:11.704Z,13.90
2023-04-26T12:16:39.065Z,14.50
2023-04-26T12:19:07.311Z,14.30
2023-04-26T12:21:44.263Z,14.40
2023-04-26T12:24:34.344Z,14.90
2023-04-26T12:27:03.032Z,15.70
2023-04-26T12:29:32.011Z,15.60
2023-04-26T12:32:00.442Z,15.30
2023-04-26T12:34:27.809Z,14.60
2023-04-26T12:36:55.007Z,14.10
2023-04-26T12:39:22.162Z,13.90
2023-04-26T12:41:49.586Z,13.30
2023-04-26T12:44:16.627Z,13.00
2023-04-26T12:46:43.793Z,12.80
2023-04-26T12:49:10.925Z,12.90
2023-04-26T12:51:37.929Z,13.20
2023-04-26T12:54:04.929Z,13.20
2023-04-26T12:56:31.901Z,13.30
2023-04-26T12:58:58.921Z,13.90
2023-04-26T13:01:26.563Z,14.50
2023-04-26T13:03:55.681Z,15.40
2023-04-26T13:06:23.041Z,15.50
2023-04-26T13:08:50.205Z,15.50
2023-04-26T13:11:18.341Z,16.10
2023-04-26T13:13:45.396Z,15.60
2023-04-26T13:16:13.246Z,14.90
2023-04-26T13:18:41.897Z,15.00
2023-04-26T13:21:08.875Z,14.50
2023-04-26T13:23:35.799Z,14.20
2023-04-26T13:26:02.969Z,13.90
2023-04-26T13:28:29.946Z,14.00
2023-04-26T13:30:56.940Z,14.50
2023-04-26T13:33:24.157Z,14.90
2023-04-26T13:35:51.313Z,15.60
2023-04-26T13:38:18.831Z,15.90
2023-04-26T13:40:45.876Z,15.60
2023-04-26T13:43:12.970Z,15.40
2023-04-26T13:45:39.976Z,15.30
2023-04-26T13:48:07.554Z,15.70
2023-04-26T13:50:37.256Z,15.50
2023-04-26T13:53:05.074Z,15.30
2023-04-26T13:55:32.099Z,15.00
2023-04-26T13:57:59.306Z,14.60
2023-04-26T14:00:26.415Z,14.20
2023-04-26T14:02:54.663Z,14.70
2023-04-26T14:05:22.050Z,14.50
2023-04-26T14:07:49.092Z,14.80
2023-04-26T14:10:16.282Z,14.90
2023-04-26T14:12:43.523Z,14.90
2023-04-26T14:15:11.099Z,15.10
2023-04-26T14:17:38.399Z,15.30
2023-04-26T14:20:05.989Z,15.10
2023-04-26T14:22:33.059Z,14.80
2023-04-26T14:25:00.097Z,14.30
2023-04-26T14:27:27.230Z,13.80
2023-04-26T14:29:54.406Z,13.40
2023-04-26T14:32:21.429Z,13.40
2023-04-26T14:34:48.385Z,13.00
2023-04-26T14:37:15.871Z,12.90
2023-04-26T14:39:43.194Z,12.80
2023-04-26T14:42:11.405Z,12.70
2023-04-26T14:44:38.565Z,12.60
2023-04-26T14:47:05.704Z,12.60
2023-04-26T14:49:32.873Z,12.90
2023-04-26T14:51:59.839Z,13.20
2023-04-26T14:54:26.767Z,12.90
2023-04-26T14:56:53.864Z,12.60
2023-04-26T14:59:21.268Z,12.50
2023-04-26T15:01:49.141Z,12.40
2023-04-26T15:04:16.725Z,12.60
2023-04-26T15:06:43.990Z,13.00
2023-04-26T15:09:11.567Z,13.50
2023-04-26T15:11:38.802Z,13.80
2023-04-26T15:14:06.181Z,14.20
2023-04-26T15:16:33.175Z,14.40
2023-04-26T15:19:00.106Z,14.20
2023-04-26T15:21:29.140Z,13.70
2023-04-26T15:23:59.011Z,13.90
2023-04-26T15:26:26.093Z,14.10
2023-04-26T15:28:53.510Z,13.90
2023-04-26T15:31:21.176Z,13.70
2023-04-26T15:33:48.392Z,13.60
2023-04-26T15:36:17.021Z,13.20
2023-04-26T15:38:45.594Z,12.70
2023-04-26T15:41:12.690Z,12.70
2023-04-26T15:43:39.647Z,12.50
2023-04-26T15:46:06.639Z,12.30
2023-04-26T15:48:33.604Z,12.30
2023-04-26T15:51:04.790Z,12.30
2023-04-26T15:53:31.680Z,12.40
2023-04-26T15:55:58.594Z,12.20
2023-04-26T15:58:25.813Z,12.10
2023-04-26T16:00:52.750Z,11.80
2023-04-26T16:03:20.552Z,11.90
2023-04-26T16:05:48.121Z,11.90
2023-04-26T16:08:21.700Z,12.00
2023-04-26T16:11:00.950Z,11.90
2023-04-26T16:13:28.837Z,11.60
2023-04-26T16:15:56.461Z,11.50
2023-04-26T16:18:23.614Z,11.60
2023-04-26T16:20:51.358Z,11.90
2023-04-26T16:23:18.887Z,11.80
2023-04-26T16:25:46.208Z,11.40
2023-04-26T16:28:13.368Z,11.20
2023-04-26T16:30:40.351Z,10.90
2023-04-26T16:33:10.190Z,10.60
2023-04-26T16:35:37.576Z,10.10
2023-04-26T16:38:04.477Z,10.10
2023-04-26T16:40:31.861Z,9.70
2023-04-26T16:42:58.894Z,9.20
2023-04-26T16:45:26.494Z,8.90
2023-04-26T16:47:53.719Z,8.70
2023-04-26T16:50:20.693Z,8.70
2023-04-26T16:52:47.730Z,8.50
2023-04-26T16:55:14.653Z,8.30
2023-04-26T16:57:42.064Z,8.20
2023-04-26T17:00:11.719Z,8.10
2023-04-26T17:02:40.977Z,8.30
2023-04-26T17:05:09.752Z,8.40
2023-04-26T17:07:37.281Z,8.50
2023-04-26T17:10:04.588Z,8.50
2023-04-26T17:12:31.609Z,8.30
2023-04-26T17:14:59.074Z,8.30
2023-04-26T17:17:26.377Z,8.30
2023-04-26T17:19:53.545Z,8.30
2023-04-26T17:22:22.537Z,8.20
2023-04-26T17:24:51.184Z,8.10
2023-04-26T17:27:18.749Z,7.80
2023-04-26T17:29:45.677Z,7.90
2023-04-26T17:32:12.809Z,7.80
2023-04-26T17:34:40.030Z,7.70
2023-04-26T17:37:06.986Z,7.60
2023-04-26T17:39:33.913Z,7.70
2023-04-26T17:42:00.823Z,7.60
2023-04-26T17:44:27.834Z,7.50
2023-04-26T17:46:54.781Z,7.50
2023-04-26T17:49:25.934Z,7.40
2023-04-26T17:51:53.121Z,7.40
2023-04-26T17:54:20.379Z,7.30
2023-04-26T17:56:48.625Z,7.30
2023-04-26T17:59:15.747Z,7.40
2023-04-26T18:01:42.896Z,7.50
2023-04-26T18:04:10.138Z,7.50
2023-04-26T18:06:38.128Z,7.50
2023-04-26T18:09:05.298Z,7.40
2023-04-26T18:11:32.542Z,7.30
2023-04-26T18:13:59.721Z,7.30
2023-04-26T18:16:27.019Z,7.10
2023-04-26T18:18:54.301Z,7.20
2023-04-26T18:21:21.417Z,7.10
2023-04-26T18:23:48.513Z,7.10
2023-04-26T18:26:15.626Z,7.10
2023-04-26T18:28:44.994Z,7.10
2023-04-26T18:31:12.103Z,7.10
2023-04-26T18:33:39.210Z,7.10
2023-04-26T18:36:06.693Z,7.10
2023-04-26T18:38:33.923Z,7.10
2023-04-26T18:41:01.049Z,7.20
2023-04-26T18:43:28.154Z,7.20
2023-04-26T18:45:55.592Z,7.20
2023-04-26T18:48:22.994Z,7.10
2023-04-26T18:50:51.304Z,7.10
2023-04-26T18:53:18.815Z,7.10
2023-04-26T18:55:46.246Z,7.10
2023-04-26T18:58:13.671Z,7.10
2023-04-26T19:00:40.624Z,7.10
2023-04-26T19:03:07.701Z,7.00
2023-04-26T19:05:34.895Z,7.00
2023-04-26T19:08:02.078Z,6.90
2023-04-26T19:10:29.015Z,7.00
2023-04-26T19:12:55.984Z,7.00
2023-04-26T19:15:22.884Z,6.90
2023-04-26T19:17:50.647Z,6.90
2023-04-26T19:20:17.927Z,6.90
2023-04-26T19:22:46.211Z,6.90
2023-04-26T19:25:20.463Z,6.90
2023-04-26T19:27:47.413Z,6.80
2023-04-26T19:30:14.475Z,6.80
2023-04-26T19:32:41.551Z,6.80
2023-04-26T19:35:09.921Z,6.70
2023-04-26T19:37:36.865Z,6.80
2023-04-26T19:40:06.459Z,6.80
2023-04-26T19:42:33.483Z,6.70
2023-04-26T19:45:00.782Z,6.60
2023-04-26T19:47:27.737Z,6.50
2023-04-26T19:49:57.216Z,6.40
2023-04-26T19:52:24.414Z,6.30
2023-04-26T19:54:54.908Z,6.30
2023-04-26T19:57:22.393Z,6.30
2023-04-26T19:59:49.405Z,6.30
2023-04-26T20:02:16.639Z,6.30
2023-04-26T20:04:45.200Z,6.30
2023-04-26T20:07:12.328Z,6.20
2023-04-26T20:09:39.710Z,6.30
2023-04-26T20:12:07.307Z,6.30
2023-04-26T20:14:34.804Z,6.20
2023-04-26T20:17:02.559Z,6.20
2023-04-26T20:19:29.986Z,6.10
2023-04-26T20:21:56.893Z,6.00
2023-04-26T20:24:29.596Z,5.90
2023-04-26T20:26:56.670Z,5.80
2023-04-26T20:29:24.109Z,5.80
2023-04-26T20:31:51.789Z,5.70
2023-04-26T20:34:18.791Z,5.60
2023-04-26T20:36:45.742Z,5.60
2023-04-26T20:39:12.614Z,5.50
2023-04-26T20:41:39.824Z,5.50
2023-04-26T20:44:07.045Z,5.50
2023-04-26T20:46:35.355Z,5.50
2023-04-26T20:49:02.851Z,5.40
2023-04-26T20:51:29.797Z,5.20
2023-04-26T20:53:56.745Z,5.10
2023-04-26T20:56:23.671Z,5.10
2023-04-26T20:58:50.723Z,5.00
2023-04-26T21:01:17.952Z,5.00
2023-04-26T21:03:45.192Z,4.90
2023-04-26T21:06:12.378Z,5.00
2023-04-26T21:08:39.539Z,5.10
2023-04-26T21:11:06.869Z,5.20
2023-04-26T21:13:34.012Z,5.20
2023-04-26T21:16:02.395Z,5.10
2023-04-26T21:18:29.684Z,5.20
2023-04-26T21:20:57.079Z,5.30
2023-04-26T21:23:24.136Z,5.30
2023-04-26T21:25:51.090Z,5.30
2023-04-26T21:28:19.021Z,5.40
2023-04-26T21:30:46.228Z,5.40
2023-04-26T21:33:13.404Z,5.40
2023-04-26T21:35:40.450Z,5.20
2023-04-26T21:38:07.419Z,5.20
2023-04-26T21:40:34.376Z,5.10
2023-04-26T21:43:05.174Z,5.10
2023-04-26T21:45:32.863Z,5.00
2023-04-26T21:47:59.949Z,5.10
2023-04-26T21:50:26.873Z,5.10
2023-04-26T21:52:53.811Z,5.00
2023-04-26T21:55:20.704Z,5.00
2023-04-26T21:57:47.825Z,5.10
2023-04-26T22:00:15.224Z,5.20
2023-04-26T22:02:42.563Z,5.30
2023-04-26T22:05:09.843Z,5.20
2023-04-26T22:07:36.839Z,5.20
2023-04-26T22:10:03.923Z,5.20
2023-04-26T22:12:31.382Z,5.30
2023-04-26T22:14:58.344Z,5.30
2023-04-26T22:17:25.512Z,5.20
2023-04-26T22:19:53.003Z,5.20
2023-04-26T22:22:20.039Z,5.20
2023-04-26T22:24:47.107Z,5.20
2023-04-26T22:27:14.073Z,5.10
2023-04-26T22:29:41.014Z,5.10
2023-04-26T22:32:08.121Z,5.10
2023-04-26T22:34:35.078Z,5.20
2023-04-26T22:37:17.068Z,5.20
2023-04-26T22:39:47.595Z,5.10
2023-04-26T22:42:14.851Z,5.10
2023-04-26T22:44:42.156Z,5.10
2023-04-26T22:47:09.218Z,5.10
2023-04-26T22:49:36.246Z,5.10
2023-04-26T22:52:11.758Z,5.00
2023-04-26T22:54:44.354Z,4.80
2023-04-26T22:57:11.375Z,4.80
2023-04-26T22:59:38.608Z,4.80
2023-04-26T23:02:05.937Z,4.80
2023-04-26T23:04:57.945Z,4.80
2023-04-26T23:07:25.256Z,4.80
2023-04-26T23:09:52.152Z,4.90
2023-04-26T23:12:23.890Z,4.90
2023-04-26T23:14:50.902Z,4.80
2023-04-26T23:17:20.689Z,4.70
2023-04-26T23:19:47.883Z,4.70
2023-04-26T23:22:15.766Z,4.70
2023-04-26T23:24:42.662Z,4.60
2023-04-26T23:27:09.735Z,4.50
2023-04-26T23:29:36.662Z,4.50
2023-04-26T23:32:03.628Z,4.40
2023-04-26T23:34:30.562Z,4.40
2023-04-26T23:36:58.886Z,4.40
2023-04-26T23:39:35.652Z,4.50
2023-04-26T23:42:02.710Z,4.50
2023-04-26T23:44:29.697Z,4.50
2023-04-26T23:46:56.788Z,4.50
2023-04-26T23:49:24.562Z,4.60
2023-04-26T23:51:51.580Z,4.60
2023-04-26T23:54:18.562Z,4.70
2023-04-26T23:56:45.650Z,4.70
2023-04-26T23:59:14.389Z,4.70
